sensor_id;sensor_type;location;lat;lon;timestamp;pressure;altitude;pressure_sealevel;temperature;humidity
68889;BME280;55930;47.412;8.790;2023-04-15T00:02:22;93595.16;;;1.94;100.00
68889;BME280;55930;47.412;8.790;2023-04-15T00:05:43;93597.72;;;1.85;100.00
68889;BME280;55930;47.412;8.790;2023-04-15T00:09:04;93598.16;;;1.83;100.00
68889;BME280;55930;47.412;8.790;2023-04-15T00:12:25;93599.91;;;1.86;100.00
68889;BME280;55930;47.412;8.790;2023-04-15T00:15:46;93596.75;;;1.91;100.00
68889;BME280;55930;47.412;8.790;2023-04-15T00:19:07;93593.53;;;1.87;100.00
68889;BME280;55930;47.412;8.790;2023-04-15T00:22:30;93591.03;;;2.06;100.00
68889;BME280;55930;47.412;8.790;2023-04-15T00:25:51;93589.94;;;1.94;100.00
68889;BME280;55930;47.412;8.790;2023-04-15T00:29:12;93587.50;;;1.56;100.00
68889;BME280;55930;47.412;8.790;2023-04-15T00:32:35;93594.59;;;1.56;100.00
68889;BME280;55930;47.412;8.790;2023-04-15T00:35:58;93585.56;;;1.69;100.00
68889;BME280;55930;47.412;8.790;2023-04-15T00:39:18;93596.47;;;1.55;100.00
68889;BME280;55930;47.412;8.790;2023-04-15T00:42:39;93583.22;;;1.49;100.00
68889;BME280;55930;47.412;8.790;2023-04-15T00:46:00;93591.66;;;1.66;100.00
68889;BME280;55930;47.412;8.790;2023-04-15T00:49:23;93590.19;;;1.65;100.00
68889;BME280;55930;47.412;8.790;2023-04-15T00:52:44;93582.75;;;1.42;100.00
68889;BME280;55930;47.412;8.790;2023-04-15T00:56:05;93593.78;;;1.46;100.00
68889;BME280;55930;47.412;8.790;2023-04-15T00:59:26;93591.25;;;1.55;100.00
68889;BME280;55930;47.412;8.790;2023-04-15T01:02:47;93593.34;;;1.26;100.00
68889;BME280;55930;47.412;8.790;2023-04-15T01:06:07;93591.59;;;1.44;100.00
68889;BME280;55930;47.412;8.790;2023-04-15T01:09:28;93595.59;;;1.36;100.00
68889;BME280;55930;47.412;8.790;2023-04-15T01:12:51;93594.97;;;1.32;100.00
68889;BME280;55930;47.412;8.790;2023-04-15T01:16:13;93606.78;;;1.37;100.00
68889;BME280;55930;47.412;8.790;2023-04-15T01:19:35;93591.75;;;1.28;100.00
68889;BME280;55930;47.412;8.790;2023-04-15T01:22:56;93599.88;;;1.43;100.00
68889;BME280;55930;47.412;8.790;2023-04-15T01:26:16;93596.09;;;1.44;100.00
68889;BME280;55930;47.412;8.790;2023-04-15T01:29:37;93604.09;;;1.28;100.00
68889;BME280;55930;47.412;8.790;2023-04-15T01:32:57;93593.22;;;1.29;100.00
68889;BME280;55930;47.412;8.790;2023-04-15T01:36:18;93600.94;;;1.20;100.00
68889;BME280;55930;47.412;8.790;2023-04-15T01:39:38;93603.19;;;0.96;100.00
68889;BME280;55930;47.412;8.790;2023-04-15T01:43:00;93596.50;;;1.08;100.00
68889;BME280;55930;47.412;8.790;2023-04-15T01:46:21;93600.44;;;1.12;100.00
68889;BME280;55930;47.412;8.790;2023-04-15T01:49:42;93603.22;;;1.43;100.00
68889;BME280;55930;47.412;8.790;2023-04-15T01:53:03;93603.25;;;1.65;100.00
68889;BME280;55930;47.412;8.790;2023-04-15T01:56:23;93606.69;;;1.62;100.00
68889;BME280;55930;47.412;8.790;2023-04-15T01:59:44;93606.22;;;1.76;100.00
68889;BME280;55930;47.412;8.790;2023-04-15T02:03:05;93602.78;;;1.79;100.00
68889;BME280;55930;47.412;8.790;2023-04-15T02:06:25;93605.56;;;1.85;100.00
68889;BME280;55930;47.412;8.790;2023-04-15T02:09:47;93605.44;;;1.88;100.00
68889;BME280;55930;47.412;8.790;2023-04-15T02:13:07;93607.25;;;2.01;100.00
68889;BME280;55930;47.412;8.790;2023-04-15T02:16:28;93608.06;;;2.10;100.00
68889;BME280;55930;47.412;8.790;2023-04-15T02:19:48;93601.50;;;2.06;100.00
68889;BME280;55930;47.412;8.790;2023-04-15T02:23:09;93607.47;;;2.06;100.00
68889;BME280;55930;47.412;8.790;2023-04-15T02:26:30;93600.59;;;2.21;100.00
68889;BME280;55930;47.412;8.790;2023-04-15T02:29:53;93604.69;;;2.31;100.00
68889;BME280;55930;47.412;8.790;2023-04-15T02:33:14;93603.59;;;2.42;100.00
68889;BME280;55930;47.412;8.790;2023-04-15T02:36:34;93601.16;;;2.47;100.00
68889;BME280;55930;47.412;8.790;2023-04-15T02:39:54;93603.47;;;2.45;100.00
68889;BME280;55930;47.412;8.790;2023-04-15T02:43:15;93603.88;;;2.44;100.00
68889;BME280;55930;47.412;8.790;2023-04-15T02:46:36;93605.88;;;2.30;100.00
68889;BME280;55930;47.412;8.790;2023-04-15T02:49:57;93602.34;;;2.55;100.00
68889;BME280;55930;47.412;8.790;2023-04-15T02:53:19;93602.81;;;2.63;100.00
68889;BME280;55930;47.412;8.790;2023-04-15T02:56:40;93607.09;;;2.79;100.00
68889;BME280;55930;47.412;8.790;2023-04-15T03:00:03;93603.50;;;2.85;100.00
68889;BME280;55930;47.412;8.790;2023-04-15T03:03:24;93605.84;;;2.92;100.00
68889;BME280;55930;47.412;8.790;2023-04-15T03:06:44;93608.41;;;2.83;100.00
68889;BME280;55930;47.412;8.790;2023-04-15T03:10:09;93608.13;;;2.81;100.00
68889;BME280;55930;47.412;8.790;2023-04-15T03:13:30;93612.50;;;2.84;100.00
68889;BME280;55930;47.412;8.790;2023-04-15T03:16:50;93612.59;;;2.72;100.00
68889;BME280;55930;47.412;8.790;2023-04-15T03:20:11;93606.41;;;2.87;100.00
68889;BME280;55930;47.412;8.790;2023-04-15T03:23:31;93612.16;;;2.73;100.00
68889;BME280;55930;47.412;8.790;2023-04-15T03:26:52;93614.91;;;2.69;100.00
68889;BME280;55930;47.412;8.790;2023-04-15T03:30:12;93603.59;;;2.82;100.00
68889;BME280;55930;47.412;8.790;2023-04-15T03:33:33;93601.91;;;2.97;100.00
68889;BME280;55930;47.412;8.790;2023-04-15T03:36:53;93598.91;;;3.17;100.00
68889;BME280;55930;47.412;8.790;2023-04-15T03:40:14;93592.66;;;3.23;100.00
68889;BME280;55930;47.412;8.790;2023-04-15T03:43:35;93593.72;;;3.35;100.00
68889;BME280;55930;47.412;8.790;2023-04-15T03:46:55;93582.66;;;3.58;100.00
68889;BME280;55930;47.412;8.790;2023-04-15T03:50:16;93589.50;;;3.74;100.00
68889;BME280;55930;47.412;8.790;2023-04-15T03:53:36;93590.09;;;3.78;96.43
68889;BME280;55930;47.412;8.790;2023-04-15T03:56:57;93592.13;;;3.83;97.13
68889;BME280;55930;47.412;8.790;2023-04-15T04:00:17;93597.06;;;3.99;95.65
68889;BME280;55930;47.412;8.790;2023-04-15T04:03:38;93601.31;;;3.97;93.37
68889;BME280;55930;47.412;8.790;2023-04-15T04:06:59;93598.22;;;4.07;94.75
68889;BME280;55930;47.412;8.790;2023-04-15T04:10:19;93595.59;;;4.07;92.98
68889;BME280;55930;47.412;8.790;2023-04-15T04:13:40;93596.31;;;4.08;94.11
68889;BME280;55930;47.412;8.790;2023-04-15T04:17:00;93594.72;;;4.10;95.86
68889;BME280;55930;47.412;8.790;2023-04-15T04:20:21;93602.91;;;3.58;100.00
68889;BME280;55930;47.412;8.790;2023-04-15T04:23:41;93607.97;;;3.34;100.00
68889;BME280;55930;47.412;8.790;2023-04-15T04:27:02;93601.28;;;3.42;100.00
68889;BME280;55930;47.412;8.790;2023-04-15T04:30:22;93600.53;;;3.23;100.00
68889;BME280;55930;47.412;8.790;2023-04-15T04:33:43;93600.13;;;3.43;100.00
68889;BME280;55930;47.412;8.790;2023-04-15T04:37:03;93603.63;;;3.58;100.00
68889;BME280;55930;47.412;8.790;2023-04-15T04:40:29;93600.00;;;3.65;100.00
68889;BME280;55930;47.412;8.790;2023-04-15T04:43:50;93602.03;;;3.61;100.00
68889;BME280;55930;47.412;8.790;2023-04-15T04:47:11;93610.19;;;3.72;100.00
68889;BME280;55930;47.412;8.790;2023-04-15T04:50:31;93601.59;;;3.80;100.00
68889;BME280;55930;47.412;8.790;2023-04-15T04:53:52;93606.13;;;3.89;100.00
68889;BME280;55930;47.412;8.790;2023-04-15T04:57:13;93608.16;;;3.85;100.00
68889;BME280;55930;47.412;8.790;2023-04-15T05:00:33;93610.34;;;3.96;100.00
68889;BME280;55930;47.412;8.790;2023-04-15T05:03:54;93613.69;;;3.96;99.38
68889;BME280;55930;47.412;8.790;2023-04-15T05:07:15;93615.41;;;3.99;100.00
68889;BME280;55930;47.412;8.790;2023-04-15T05:10:36;93616.88;;;4.18;97.57
68889;BME280;55930;47.412;8.790;2023-04-15T05:13:57;93615.41;;;4.27;96.67
68889;BME280;55930;47.412;8.790;2023-04-15T05:17:18;93621.19;;;4.40;98.03
68889;BME280;55930;47.412;8.790;2023-04-15T05:20:41;93612.03;;;4.35;99.53
68889;BME280;55930;47.412;8.790;2023-04-15T05:24:02;93624.13;;;4.42;100.00
68889;BME280;55930;47.412;8.790;2023-04-15T05:27:23;93613.88;;;4.62;97.41
68889;BME280;55930;47.412;8.790;2023-04-15T05:30:44;93621.69;;;4.80;96.28
68889;BME280;55930;47.412;8.790;2023-04-15T05:34:04;93614.19;;;4.88;96.38
68889;BME280;55930;47.412;8.790;2023-04-15T05:37:26;93632.00;;;4.93;97.91
68889;BME280;55930;47.412;8.790;2023-04-15T05:40:49;93632.28;;;4.95;100.00
68889;BME280;55930;47.412;8.790;2023-04-15T05:44:11;93630.00;;;5.12;93.64
68889;BME280;55930;47.412;8.790;2023-04-15T05:47:32;93636.03;;;5.36;90.69
68889;BME280;55930;47.412;8.790;2023-04-15T05:50:52;93626.56;;;5.53;86.12
68889;BME280;55930;47.412;8.790;2023-04-15T05:54:13;93629.38;;;5.73;88.78
68889;BME280;55930;47.412;8.790;2023-04-15T05:57:33;93627.34;;;5.92;93.60
68889;BME280;55930;47.412;8.790;2023-04-15T06:00:53;93628.59;;;6.06;94.80
68889;BME280;55930;47.412;8.790;2023-04-15T06:04:14;93616.09;;;6.30;96.89
68889;BME280;55930;47.412;8.790;2023-04-15T06:07:37;93626.69;;;6.65;93.54
68889;BME280;55930;47.412;8.790;2023-04-15T06:10:58;93627.25;;;6.69;90.09
68889;BME280;55930;47.412;8.790;2023-04-15T06:14:18;93622.53;;;6.59;87.36
68889;BME280;55930;47.412;8.790;2023-04-15T06:17:39;93623.06;;;6.77;87.78
68889;BME280;55930;47.412;8.790;2023-04-15T06:20:59;93625.47;;;6.96;88.71
68889;BME280;55930;47.412;8.790;2023-04-15T06:24:20;93620.56;;;7.18;91.98
68889;BME280;55930;47.412;8.790;2023-04-15T06:27:40;93626.06;;;7.55;87.01
68889;BME280;55930;47.412;8.790;2023-04-15T06:31:01;93627.00;;;7.72;82.21
68889;BME280;55930;47.412;8.790;2023-04-15T06:34:21;93619.72;;;7.67;79.65
68889;BME280;55930;47.412;8.790;2023-04-15T06:37:41;93625.41;;;7.60;75.93
68889;BME280;55930;47.412;8.790;2023-04-15T06:41:03;93625.41;;;7.60;76.06
68889;BME280;55930;47.412;8.790;2023-04-15T06:44:28;93622.22;;;7.76;74.84
68889;BME280;55930;47.412;8.790;2023-04-15T06:47:48;93616.00;;;7.99;74.29
68889;BME280;55930;47.412;8.790;2023-04-15T06:51:08;93614.84;;;8.26;72.85
68889;BME280;55930;47.412;8.790;2023-04-15T06:54:29;93627.06;;;8.24;73.44
68889;BME280;55930;47.412;8.790;2023-04-15T06:57:49;93625.41;;;8.26;73.18
68889;BME280;55930;47.412;8.790;2023-04-15T07:01:10;93622.94;;;8.17;71.68
68889;BME280;55930;47.412;8.790;2023-04-15T07:04:31;93628.00;;;8.41;70.67
68889;BME280;55930;47.412;8.790;2023-04-15T07:07:51;93625.78;;;8.91;71.51
68889;BME280;55930;47.412;8.790;2023-04-15T07:11:12;93620.84;;;9.10;69.81
68889;BME280;55930;47.412;8.790;2023-04-15T07:14:33;93626.72;;;9.25;68.24
68889;BME280;55930;47.412;8.790;2023-04-15T07:17:54;93628.41;;;9.28;70.75
68889;BME280;55930;47.412;8.790;2023-04-15T07:21:15;93622.72;;;9.04;72.35
68889;BME280;55930;47.412;8.790;2023-04-15T07:24:36;93619.28;;;8.92;71.17
68889;BME280;55930;47.412;8.790;2023-04-15T07:27:56;93624.03;;;9.62;73.59
68889;BME280;55930;47.412;8.790;2023-04-15T07:31:17;93630.22;;;9.48;71.02
68889;BME280;55930;47.412;8.790;2023-04-15T07:34:37;93624.09;;;9.25;70.80
68889;BME280;55930;47.412;8.790;2023-04-15T07:37:58;93620.84;;;9.10;71.96
68889;BME280;55930;47.412;8.790;2023-04-15T07:41:18;93630.22;;;9.11;72.92
68889;BME280;55930;47.412;8.790;2023-04-15T07:44:39;93631.84;;;9.03;76.47
68889;BME280;55930;47.412;8.790;2023-04-15T07:48:01;93624.41;;;9.01;78.42
68889;BME280;55930;47.412;8.790;2023-04-15T07:51:21;93633.25;;;9.72;76.48
68889;BME280;55930;47.412;8.790;2023-04-15T07:54:44;93633.25;;;9.30;73.99
68889;BME280;55930;47.412;8.790;2023-04-15T07:58:04;93627.47;;;8.94;76.64
68889;BME280;55930;47.412;8.790;2023-04-15T08:01:28;93631.13;;;9.02;77.25
68889;BME280;55930;47.412;8.790;2023-04-15T08:04:48;93628.19;;;8.95;79.26
68889;BME280;55930;47.412;8.790;2023-04-15T08:08:08;93632.41;;;9.12;77.79
68889;BME280;55930;47.412;8.790;2023-04-15T08:11:29;93621.63;;;8.53;78.45
68889;BME280;55930;47.412;8.790;2023-04-15T08:14:50;93627.28;;;8.72;79.33
68889;BME280;55930;47.412;8.790;2023-04-15T08:18:11;93625.38;;;8.72;77.22
68889;BME280;55930;47.412;8.790;2023-04-15T08:21:31;93631.50;;;8.58;78.08
68889;BME280;55930;47.412;8.790;2023-04-15T08:24:52;93627.75;;;8.70;76.76
68889;BME280;55930;47.412;8.790;2023-04-15T08:28:12;93635.19;;;8.66;78.91
68889;BME280;55930;47.412;8.790;2023-04-15T08:31:33;93639.44;;;8.58;77.23
68889;BME280;55930;47.412;8.790;2023-04-15T08:34:53;93641.84;;;8.88;74.62
68889;BME280;55930;47.412;8.790;2023-04-15T08:38:14;93647.72;;;9.03;73.63
68889;BME280;55930;47.412;8.790;2023-04-15T08:41:51;93653.88;;;9.20;74.32
68889;BME280;55930;47.412;8.790;2023-04-15T08:45:11;93651.31;;;9.31;73.71
68889;BME280;55930;47.412;8.790;2023-04-15T08:48:32;93655.22;;;9.10;73.44
68889;BME280;55930;47.412;8.790;2023-04-15T08:51:57;93648.88;;;8.96;75.36
68889;BME280;55930;47.412;8.790;2023-04-15T08:55:19;93654.97;;;9.87;73.41
68889;BME280;55930;47.412;8.790;2023-04-15T08:58:40;93651.94;;;10.11;68.52
68889;BME280;55930;47.412;8.790;2023-04-15T09:02:01;93643.16;;;10.87;66.29
68889;BME280;55930;47.412;8.790;2023-04-15T09:05:25;93647.19;;;10.26;65.68
68889;BME280;55930;47.412;8.790;2023-04-15T09:08:47;93644.84;;;11.12;62.41
68889;BME280;55930;47.412;8.790;2023-04-15T09:12:08;93645.63;;;12.09;62.18
68889;BME280;55930;47.412;8.790;2023-04-15T09:15:29;93654.00;;;11.39;60.95
68889;BME280;55930;47.412;8.790;2023-04-15T09:18:52;93652.50;;;11.66;62.12
68889;BME280;55930;47.412;8.790;2023-04-15T09:22:13;93660.78;;;10.84;60.48
68889;BME280;55930;47.412;8.790;2023-04-15T09:25:34;93669.00;;;11.08;63.09
68889;BME280;55930;47.412;8.790;2023-04-15T09:29:02;93662.16;;;11.58;61.38
68889;BME280;55930;47.412;8.790;2023-04-15T09:32:23;93669.69;;;11.48;60.58
68889;BME280;55930;47.412;8.790;2023-04-15T09:36:02;93670.91;;;10.91;66.07
68889;BME280;55930;47.412;8.790;2023-04-15T09:39:23;93674.97;;;10.59;62.30
68889;BME280;55930;47.412;8.790;2023-04-15T09:42:56;93670.66;;;10.95;61.33
68889;BME280;55930;47.412;8.790;2023-04-15T09:46:19;93672.28;;;11.81;57.93
68889;BME280;55930;47.412;8.790;2023-04-15T09:49:54;93669.41;;;11.63;59.93
68889;BME280;55930;47.412;8.790;2023-04-15T09:53:17;93677.88;;;11.61;58.02
68889;BME280;55930;47.412;8.790;2023-04-15T09:56:38;93676.91;;;11.59;57.47
68889;BME280;55930;47.412;8.790;2023-04-15T10:00:06;93673.28;;;13.48;55.47
68889;BME280;55930;47.412;8.790;2023-04-15T10:03:31;93676.50;;;12.23;56.60
68889;BME280;55930;47.412;8.790;2023-04-15T10:06:57;93679.19;;;12.64;56.27
68889;BME280;55930;47.412;8.790;2023-04-15T10:10:18;93673.31;;;11.34;57.91
68889;BME280;55930;47.412;8.790;2023-04-15T10:13:40;93682.66;;;11.91;59.64
68889;BME280;55930;47.412;8.790;2023-04-15T10:17:01;93675.63;;;12.04;57.74
68889;BME280;55930;47.412;8.790;2023-04-15T10:20:23;93680.50;;;11.83;56.70
68889;BME280;55930;47.412;8.790;2023-04-15T10:23:44;93681.31;;;12.72;60.54
68889;BME280;55930;47.412;8.790;2023-04-15T10:27:05;93673.53;;;12.85;53.95
68889;BME280;55930;47.412;8.790;2023-04-15T10:30:27;93680.63;;;12.13;55.27
68889;BME280;55930;47.412;8.790;2023-04-15T10:33:48;93679.09;;;12.40;53.25
68889;BME280;55930;47.412;8.790;2023-04-15T10:37:09;93688.47;;;12.52;52.13
68889;BME280;55930;47.412;8.790;2023-04-15T10:40:31;93683.81;;;12.99;53.84
68889;BME280;55930;47.412;8.790;2023-04-15T10:47:19;93678.13;;;12.79;53.27
68889;BME280;55930;47.412;8.790;2023-04-15T10:50:40;93687.28;;;11.79;55.93
68889;BME280;55930;47.412;8.790;2023-04-15T10:54:30;93686.47;;;12.99;53.58
68889;BME280;55930;47.412;8.790;2023-04-15T10:57:58;93696.56;;;13.96;52.55
68889;BME280;55930;47.412;8.790;2023-04-15T11:01:21;93698.75;;;14.16;50.44
68889;BME280;55930;47.412;8.790;2023-04-15T11:04:54;93694.03;;;13.31;52.91
68889;BME280;55930;47.412;8.790;2023-04-15T11:08:17;93695.78;;;13.77;52.26
68889;BME280;55930;47.412;8.790;2023-04-15T11:12:11;93701.75;;;12.93;53.00
68889;BME280;55930;47.412;8.790;2023-04-15T11:15:42;93707.50;;;13.03;51.41
68889;BME280;55930;47.412;8.790;2023-04-15T11:19:04;93714.16;;;13.56;52.54
68889;BME280;55930;47.412;8.790;2023-04-15T11:22:24;93719.22;;;13.30;50.68
68889;BME280;55930;47.412;8.790;2023-04-15T11:25:45;93720.66;;;12.90;51.98
68889;BME280;55930;47.412;8.790;2023-04-15T11:29:05;93724.16;;;13.09;53.54
68889;BME280;55930;47.412;8.790;2023-04-15T11:32:28;93724.63;;;12.14;57.09
68889;BME280;55930;47.412;8.790;2023-04-15T11:35:49;93722.91;;;12.80;57.14
68889;BME280;55930;47.412;8.790;2023-04-15T11:39:10;93723.56;;;12.40;57.34
68889;BME280;55930;47.412;8.790;2023-04-15T11:42:30;93736.88;;;12.86;57.56
68889;BME280;55930;47.412;8.790;2023-04-15T11:45:59;93744.88;;;13.27;54.56
68889;BME280;55930;47.412;8.790;2023-04-15T11:49:27;93745.00;;;14.00;53.64
68889;BME280;55930;47.412;8.790;2023-04-15T11:53:08;93751.19;;;12.83;54.47
68889;BME280;55930;47.412;8.790;2023-04-15T11:56:28;93759.22;;;14.08;51.41
68889;BME280;55930;47.412;8.790;2023-04-15T11:59:54;93767.66;;;15.49;48.54
68889;BME280;55930;47.412;8.790;2023-04-15T12:03:24;93767.03;;;16.60;43.96
68889;BME280;55930;47.412;8.790;2023-04-15T12:06:45;93775.31;;;15.77;48.25
68889;BME280;55930;47.412;8.790;2023-04-15T12:10:06;93782.56;;;15.45;49.07
68889;BME280;55930;47.412;8.790;2023-04-15T12:13:26;93779.00;;;15.74;46.44
68889;BME280;55930;47.412;8.790;2023-04-15T12:16:52;93785.28;;;15.26;48.42
68889;BME280;55930;47.412;8.790;2023-04-15T12:20:20;93792.28;;;14.00;49.76
68889;BME280;55930;47.412;8.790;2023-04-15T12:23:57;93796.78;;;13.51;53.53
68889;BME280;55930;47.412;8.790;2023-04-15T12:27:25;93790.84;;;14.90;52.02
68889;BME280;55930;47.412;8.790;2023-04-15T12:30:51;93800.50;;;14.02;52.75
68889;BME280;55930;47.412;8.790;2023-04-15T12:34:13;93801.16;;;14.81;52.15
68889;BME280;55930;47.412;8.790;2023-04-15T12:37:33;93804.78;;;14.10;54.80
68889;BME280;55930;47.412;8.790;2023-04-15T12:40:54;93807.00;;;13.47;55.25
68889;BME280;55930;47.412;8.790;2023-04-15T12:44:14;93812.53;;;12.50;58.05
68889;BME280;55930;47.412;8.790;2023-04-15T12:47:35;93813.97;;;13.14;57.23
68889;BME280;55930;47.412;8.790;2023-04-15T12:50:55;93818.44;;;12.89;58.33
68889;BME280;55930;47.412;8.790;2023-04-15T12:54:16;93830.66;;;13.20;57.14
68889;BME280;55930;47.412;8.790;2023-04-15T12:57:37;93842.03;;;12.52;59.22
68889;BME280;55930;47.412;8.790;2023-04-15T13:00:57;93845.44;;;12.41;60.72
68889;BME280;55930;47.412;8.790;2023-04-15T13:04:19;93851.06;;;12.21;61.20
68889;BME280;55930;47.412;8.790;2023-04-15T13:07:43;93847.66;;;12.09;63.62
68889;BME280;55930;47.412;8.790;2023-04-15T13:11:03;93855.34;;;12.46;60.52
68889;BME280;55930;47.412;8.790;2023-04-15T13:14:24;93856.34;;;12.15;59.13
68889;BME280;55930;47.412;8.790;2023-04-15T13:17:44;93861.53;;;12.82;58.02
68889;BME280;55930;47.412;8.790;2023-04-15T13:21:05;93865.03;;;11.55;61.17
68889;BME280;55930;47.412;8.790;2023-04-15T13:24:28;93875.63;;;12.55;61.19
68889;BME280;55930;47.412;8.790;2023-04-15T13:27:49;93877.25;;;11.13;61.86
68889;BME280;55930;47.412;8.790;2023-04-15T13:31:09;93881.28;;;11.96;59.86
68889;BME280;55930;47.412;8.790;2023-04-15T13:34:30;93886.41;;;11.12;61.17
68889;BME280;55930;47.412;8.790;2023-04-15T13:37:53;93894.34;;;11.06;61.29
68889;BME280;55930;47.412;8.790;2023-04-15T13:41:14;93897.53;;;11.22;61.26
68889;BME280;55930;47.412;8.790;2023-04-15T13:44:35;93900.00;;;10.03;63.85
68889;BME280;55930;47.412;8.790;2023-04-15T13:47:55;93903.78;;;10.22;65.43
68889;BME280;55930;47.412;8.790;2023-04-15T13:51:18;93901.41;;;10.67;64.44
68889;BME280;55930;47.412;8.790;2023-04-15T13:54:38;93908.09;;;10.57;64.38
68889;BME280;55930;47.412;8.790;2023-04-15T13:58:01;93913.78;;;10.39;64.38
68889;BME280;55930;47.412;8.790;2023-04-15T14:01:21;93914.59;;;10.56;63.19
68889;BME280;55930;47.412;8.790;2023-04-15T14:04:42;93917.34;;;10.67;63.88
68889;BME280;55930;47.412;8.790;2023-04-15T14:08:02;93918.34;;;10.38;64.03
68889;BME280;55930;47.412;8.790;2023-04-15T14:11:22;93923.88;;;10.34;65.38
68889;BME280;55930;47.412;8.790;2023-04-15T14:14:43;93926.09;;;10.84;63.95
68889;BME280;55930;47.412;8.790;2023-04-15T14:18:04;93931.78;;;9.97;64.91
68889;BME280;55930;47.412;8.790;2023-04-15T14:21:27;93939.53;;;10.32;63.98
68889;BME280;55930;47.412;8.790;2023-04-15T14:24:48;93940.22;;;10.02;66.42
68889;BME280;55930;47.412;8.790;2023-04-15T14:28:08;93952.63;;;9.90;66.80
68889;BME280;55930;47.412;8.790;2023-04-15T14:31:28;93952.72;;;10.21;68.23
68889;BME280;55930;47.412;8.790;2023-04-15T14:34:49;93964.44;;;10.46;67.65
68889;BME280;55930;47.412;8.790;2023-04-15T14:38:10;93969.31;;;10.22;68.28
68889;BME280;55930;47.412;8.790;2023-04-15T14:41:34;93972.59;;;10.11;70.74
68889;BME280;55930;47.412;8.790;2023-04-15T14:44:54;93984.06;;;10.03;71.25
68889;BME280;55930;47.412;8.790;2023-04-15T14:48:14;93982.50;;;10.16;69.25
68889;BME280;55930;47.412;8.790;2023-04-15T14:51:35;93988.44;;;10.31;70.97
68889;BME280;55930;47.412;8.790;2023-04-15T14:54:55;93988.72;;;9.62;74.81
68889;BME280;55930;47.412;8.790;2023-04-15T14:58:16;93997.56;;;9.79;74.96
68889;BME280;55930;47.412;8.790;2023-04-15T15:01:36;94000.28;;;9.84;75.17
68889;BME280;55930;47.412;8.790;2023-04-15T15:04:57;94006.72;;;9.78;73.76
68889;BME280;55930;47.412;8.790;2023-04-15T15:08:18;94016.75;;;9.74;72.85
68889;BME280;55930;47.412;8.790;2023-04-15T15:11:38;94023.22;;;9.47;74.58
68889;BME280;55930;47.412;8.790;2023-04-15T15:15:03;94024.88;;;9.65;75.19
68889;BME280;55930;47.412;8.790;2023-04-15T15:18:24;94026.28;;;9.40;77.05
68889;BME280;55930;47.412;8.790;2023-04-15T15:21:45;94034.53;;;9.47;78.16
68889;BME280;55930;47.412;8.790;2023-04-15T15:25:06;94047.81;;;9.93;74.60
68889;BME280;55930;47.412;8.790;2023-04-15T15:28:26;94052.19;;;9.96;76.67
68889;BME280;55930;47.412;8.790;2023-04-15T15:31:49;94068.22;;;9.67;78.25
68889;BME280;55930;47.412;8.790;2023-04-15T15:35:09;94064.97;;;9.37;79.60
68889;BME280;55930;47.412;8.790;2023-04-15T15:38:30;94059.88;;;9.34;80.41
68889;BME280;55930;47.412;8.790;2023-04-15T15:41:53;94069.03;;;9.33;82.72
68889;BME280;55930;47.412;8.790;2023-04-15T15:45:16;94085.31;;;9.11;83.70
68889;BME280;55930;47.412;8.790;2023-04-15T15:48:37;94091.47;;;8.73;85.53
68889;BME280;55930;47.412;8.790;2023-04-15T15:51:57;94096.66;;;8.97;84.98
68889;BME280;55930;47.412;8.790;2023-04-15T15:55:18;94102.75;;;9.03;84.75
68889;BME280;55930;47.412;8.790;2023-04-15T15:58:38;94107.06;;;9.00;84.54
68889;BME280;55930;47.412;8.790;2023-04-15T16:01:59;94111.81;;;8.81;85.88
68889;BME280;55930;47.412;8.790;2023-04-15T16:05:20;94117.75;;;8.62;87.85
68889;BME280;55930;47.412;8.790;2023-04-15T16:08:40;94135.88;;;8.83;87.53
68889;BME280;55930;47.412;8.790;2023-04-15T16:12:01;94138.97;;;8.82;87.20
68889;BME280;55930;47.412;8.790;2023-04-15T16:15:24;94139.72;;;8.53;90.08
68889;BME280;55930;47.412;8.790;2023-04-15T16:18:45;94144.19;;;8.62;90.47
68889;BME280;55930;47.412;8.790;2023-04-15T16:22:08;94126.94;;;8.37;94.60
68889;BME280;55930;47.412;8.790;2023-04-15T16:25:28;94121.22;;;8.15;93.73
68889;BME280;55930;47.412;8.790;2023-04-15T16:28:48;94126.88;;;7.84;96.40
68889;BME280;55930;47.412;8.790;2023-04-15T16:32:09;94123.34;;;7.63;96.28
68889;BME280;55930;47.412;8.790;2023-04-15T16:35:30;94138.00;;;7.88;95.12
68889;BME280;55930;47.412;8.790;2023-04-15T16:38:50;94138.84;;;7.94;94.71
68889;BME280;55930;47.412;8.790;2023-04-15T16:42:11;94138.84;;;7.94;96.15
68889;BME280;55930;47.412;8.790;2023-04-15T16:45:32;94139.22;;;8.01;95.26
68889;BME280;55930;47.412;8.790;2023-04-15T16:48:52;94139.63;;;7.61;98.54
68889;BME280;55930;47.412;8.790;2023-04-15T16:52:13;94139.91;;;7.63;97.78
68889;BME280;55930;47.412;8.790;2023-04-15T16:55:33;94142.31;;;7.52;98.29
68889;BME280;55930;47.412;8.790;2023-04-15T16:58:53;94146.63;;;7.41;99.47
68889;BME280;55930;47.412;8.790;2023-04-15T17:02:14;94142.25;;;7.38;98.42
68889;BME280;55930;47.412;8.790;2023-04-15T17:05:34;94151.94;;;7.32;97.78
68889;BME280;55930;47.412;8.790;2023-04-15T17:08:55;94158.47;;;7.45;96.33
68889;BME280;55930;47.412;8.790;2023-04-15T17:12:15;94162.44;;;7.50;94.82
68889;BME280;55930;47.412;8.790;2023-04-15T17:15:36;94164.19;;;7.44;95.25
68889;BME280;55930;47.412;8.790;2023-04-15T17:19:01;94174.88;;;7.49;92.52
68889;BME280;55930;47.412;8.790;2023-04-15T17:22:22;94182.34;;;7.51;93.24
68889;BME280;55930;47.412;8.790;2023-04-15T17:25:42;94182.28;;;7.27;94.43
68889;BME280;55930;47.412;8.790;2023-04-15T17:29:03;94183.50;;;7.26;94.64
68889;BME280;55930;47.412;8.790;2023-04-15T17:32:24;94190.69;;;7.25;95.80
68889;BME280;55930;47.412;8.790;2023-04-15T17:35:50;94191.91;;;7.06;97.76
68889;BME280;55930;47.412;8.790;2023-04-15T17:39:10;94195.41;;;7.03;96.50
68889;BME280;55930;47.412;8.790;2023-04-15T17:42:33;94213.00;;;7.06;96.25
68889;BME280;55930;47.412;8.790;2023-04-15T17:45:53;94212.16;;;6.91;96.39
68889;BME280;55930;47.412;8.790;2023-04-15T17:49:13;94222.09;;;6.87;97.47
68889;BME280;55930;47.412;8.790;2023-04-15T17:52:34;94225.34;;;6.73;97.81
68889;BME280;55930;47.412;8.790;2023-04-15T17:55:56;94232.09;;;6.83;98.19
68889;BME280;55930;47.412;8.790;2023-04-15T17:59:17;94236.19;;;6.66;99.92